createdAt,value
2018-07-25T00:01:39.741Z,22.20
2018-07-25T00:04:07.871Z,22.20
2018-07-25T00:06:35.947Z,22.20
2018-07-25T00:09:06.208Z,22.20
2018-07-25T00:11:34.299Z,22.20
2018-07-25T00:14:02.430Z,22.20
2018-07-25T00:16:30.527Z,22.10
2018-07-25T00:18:58.643Z,22.00
2018-07-25T00:21:26.921Z,22.00
2018-07-25T00:23:54.988Z,22.00
2018-07-25T00:26:23.089Z,22.00
2018-07-25T00:28:51.193Z,22.00
2018-07-25T00:31:19.301Z,21.90
2018-07-25T00:33:47.401Z,21.90
2018-07-25T00:36:15.501Z,21.90
2018-07-25T00:38:43.591Z,21.80
2018-07-25T00:41:11.690Z,21.80
2018-07-25T00:43:39.800Z,21.70
2018-07-25T00:46:08.556Z,21.70
2018-07-25T00:48:36.696Z,21.60
2018-07-25T00:51:04.821Z,21.70
2018-07-25T00:53:32.932Z,21.60
2018-07-25T00:56:01.062Z,21.60
2018-07-25T00:58:29.205Z,21.60
2018-07-25T01:00:57.351Z,21.60
2018-07-25T01:03:25.458Z,21.50
2018-07-25T01:05:53.618Z,21.50
2018-07-25T01:08:21.750Z,21.50
2018-07-25T01:10:49.878Z,21.50
2018-07-25T01:13:17.991Z,21.50
2018-07-25T01:15:46.140Z,21.50
2018-07-25T01:18:14.269Z,21.40
2018-07-25T01:20:42.401Z,21.40
2018-07-25T01:23:10.516Z,21.40
2018-07-25T01:25:38.634Z,21.30
2018-07-25T01:28:06.776Z,21.30
2018-07-25T01:30:34.928Z,21.30
2018-07-25T01:33:03.057Z,21.30
2018-07-25T01:35:31.179Z,21.30
2018-07-25T01:37:59.296Z,21.30
2018-07-25T01:40:27.419Z,21.30
2018-07-25T01:42:55.541Z,21.20
2018-07-25T01:45:23.683Z,21.20
2018-07-25T01:47:51.831Z,21.30
2018-07-25T01:50:19.997Z,21.10
2018-07-25T01:55:16.027Z,21.00
2018-07-25T01:57:44.164Z,21.00
2018-07-25T02:00:12.288Z,20.80
2018-07-25T02:02:40.416Z,20.70
2018-07-25T02:05:08.550Z,20.70
2018-07-25T02:07:36.688Z,20.80
2018-07-25T02:10:05.777Z,20.80
2018-07-25T02:12:34.158Z,20.80
2018-07-25T02:15:02.276Z,20.70
2018-07-25T02:17:30.411Z,20.70
2018-07-25T02:19:58.552Z,20.70
2018-07-25T02:22:26.676Z,20.70
2018-07-25T02:24:54.801Z,20.70
2018-07-25T02:27:22.930Z,20.60
2018-07-25T02:29:51.196Z,20.50
2018-07-25T02:32:19.339Z,20.50
2018-07-25T02:34:47.438Z,20.50
2018-07-25T02:37:15.568Z,20.50
2018-07-25T02:39:44.074Z,20.50
2018-07-25T02:45:05.125Z,20.30
2018-07-25T02:47:33.256Z,20.30
2018-07-25T02:50:01.374Z,20.30
2018-07-25T02:52:29.558Z,20.40
2018-07-25T02:54:57.704Z,20.40
2018-07-25T02:57:25.840Z,20.40
2018-07-25T02:59:53.961Z,20.50
2018-07-25T03:02:22.084Z,20.50
2018-07-25T03:04:50.197Z,20.50
2018-07-25T03:07:18.345Z,20.60
2018-07-25T03:09:46.477Z,20.60
2018-07-25T03:12:14.618Z,20.50
2018-07-25T03:14:42.732Z,20.50
2018-07-25T03:17:10.859Z,20.50
2018-07-25T03:19:39.045Z,20.50
2018-07-25T03:22:07.168Z,20.40
2018-07-25T03:24:35.265Z,20.50
2018-07-25T03:27:03.361Z,20.40
2018-07-25T03:29:31.454Z,20.40
2018-07-25T03:31:59.591Z,20.40
2018-07-25T03:34:27.662Z,20.30
2018-07-25T03:36:55.796Z,20.30
2018-07-25T03:39:23.891Z,20.30
2018-07-25T03:41:51.989Z,20.30
2018-07-25T03:44:20.144Z,20.30
2018-07-25T03:46:48.250Z,20.20
2018-07-25T03:49:16.364Z,20.00
2018-07-25T03:51:44.478Z,20.00
2018-07-25T03:54:12.570Z,19.90
2018-07-25T03:56:40.696Z,19.80
2018-07-25T03:59:08.808Z,19.70
2018-07-25T04:01:36.971Z,19.70
2018-07-25T04:04:05.064Z,19.70
2018-07-25T04:06:33.177Z,19.70
2018-07-25T04:09:01.292Z,19.70
2018-07-25T04:13:57.267Z,19.80
2018-07-25T04:16:25.386Z,19.90
2018-07-25T04:18:53.505Z,19.90
2018-07-25T04:21:21.633Z,19.90
2018-07-25T04:23:49.745Z,19.90
2018-07-25T04:26:17.850Z,20.00
2018-07-25T04:28:45.956Z,20.00
2018-07-25T04:31:14.068Z,19.90
2018-07-25T04:33:42.200Z,19.90
2018-07-25T04:36:10.312Z,20.00
2018-07-25T04:38:38.448Z,20.10
2018-07-25T04:41:06.584Z,20.20
2018-07-25T04:43:34.687Z,20.20
2018-07-25T04:48:30.795Z,20.40
2018-07-25T04:50:58.968Z,20.40
2018-07-25T04:53:27.099Z,20.50
2018-07-25T04:55:55.228Z,20.50
2018-07-25T04:58:23.335Z,20.60
2018-07-25T05:00:51.475Z,20.60
2018-07-25T05:03:19.594Z,20.70
2018-07-25T05:05:47.732Z,20.80
2018-07-25T05:08:15.854Z,20.80
2018-07-25T05:10:43.951Z,20.80
2018-07-25T05:13:12.063Z,20.90
2018-07-25T05:15:40.200Z,21.00
2018-07-25T05:18:08.308Z,21.00
2018-07-25T05:20:36.442Z,21.10
2018-07-25T05:23:04.583Z,21.20
2018-07-25T05:25:32.711Z,21.30
2018-07-25T05:28:00.819Z,21.40
2018-07-25T05:32:57.060Z,21.70
2018-07-25T05:35:25.180Z,21.80
2018-07-25T05:37:53.326Z,22.00
2018-07-25T05:40:21.472Z,22.20
2018-07-25T05:42:49.619Z,22.30
2018-07-25T05:45:17.741Z,22.50
2018-07-25T05:47:45.871Z,22.70
2018-07-25T05:50:13.988Z,22.90
2018-07-25T05:52:42.135Z,23.00
2018-07-25T05:55:10.236Z,23.20
2018-07-25T05:57:38.375Z,23.40
2018-07-25T06:00:06.505Z,23.50
2018-07-25T06:02:34.641Z,23.70
2018-07-25T06:05:02.847Z,23.90
2018-07-25T06:07:30.918Z,24.20
2018-07-25T06:09:59.060Z,24.40
2018-07-25T06:12:27.172Z,24.60
2018-07-25T06:14:55.287Z,24.70
2018-07-25T06:17:23.426Z,24.90
2018-07-25T06:19:51.656Z,25.10
2018-07-25T06:22:20.049Z,25.50
2018-07-25T06:24:48.263Z,25.70
2018-07-25T06:27:16.411Z,26.00
2018-07-25T06:29:44.596Z,26.20
2018-07-25T06:32:12.752Z,26.40
2018-07-25T06:34:40.983Z,26.60
2018-07-25T06:37:09.986Z,26.70
2018-07-25T06:39:38.113Z,26.90
2018-07-25T06:42:06.281Z,27.10
2018-07-25T06:44:34.424Z,27.20
2018-07-25T06:52:23.776Z,27.80
2018-07-25T06:54:51.939Z,28.10
2018-07-25T06:57:20.099Z,28.20
2018-07-25T06:59:48.201Z,28.40
2018-07-25T07:02:16.340Z,28.70
2018-07-25T07:04:44.519Z,28.90
2018-07-25T07:07:12.725Z,29.20
2018-07-25T07:09:40.854Z,29.30
2018-07-25T07:12:09.006Z,29.50
2018-07-25T07:14:37.140Z,29.50
2018-07-25T07:17:05.263Z,29.60
2018-07-25T07:19:33.443Z,29.80
2018-07-25T07:22:01.568Z,30.00
2018-07-25T07:24:29.719Z,30.20
2018-07-25T07:26:57.866Z,30.40
2018-07-25T07:29:25.989Z,30.60
2018-07-25T07:31:54.104Z,30.70
2018-07-25T07:34:22.256Z,30.90
2018-07-25T07:36:50.403Z,31.00
2018-07-25T07:39:18.540Z,31.20
2018-07-25T07:41:46.691Z,31.40
2018-07-25T07:44:14.921Z,31.60
2018-07-25T07:46:43.012Z,31.60
2018-07-25T07:49:11.153Z,31.60
2018-07-25T07:51:39.304Z,31.80
2018-07-25T07:54:07.519Z,32.00
2018-07-25T07:56:35.639Z,32.00
2018-07-25T07:59:03.791Z,32.00
2018-07-25T08:03:59.865Z,32.10
2018-07-25T08:06:27.979Z,32.40
2018-07-25T08:08:56.464Z,32.50
2018-07-25T08:11:24.661Z,32.70
2018-07-25T08:13:52.782Z,32.80
2018-07-25T08:16:20.979Z,32.90
2018-07-25T08:18:49.121Z,33.00
2018-07-25T08:21:17.616Z,33.20
2018-07-25T08:23:45.723Z,33.30
2018-07-25T08:26:13.841Z,33.40
2018-07-25T08:28:41.941Z,33.40
2018-07-25T08:31:10.085Z,33.40
2018-07-25T08:33:38.203Z,33.40
2018-07-25T08:36:06.355Z,33.40
2018-07-25T08:38:44.189Z,33.50
2018-07-25T08:41:12.407Z,33.60
2018-07-25T08:43:41.587Z,33.60
2018-07-25T08:46:10.886Z,33.80
2018-07-25T08:48:39.452Z,34.00
2018-07-25T08:51:07.593Z,34.10
2018-07-25T08:53:36.244Z,34.10
2018-07-25T08:56:04.557Z,34.30
2018-07-25T08:58:32.683Z,34.50
2018-07-25T09:01:01.254Z,34.60
2018-07-25T09:03:29.385Z,34.80
2018-07-25T09:05:57.501Z,34.70
2018-07-25T09:08:25.813Z,34.80
2018-07-25T09:10:53.934Z,34.90
2018-07-25T09:13:22.204Z,34.90
2018-07-25T09:15:50.371Z,34.90
2018-07-25T09:18:18.489Z,34.90
2018-07-25T09:23:14.494Z,34.90
2018-07-25T09:25:42.625Z,35.00
2018-07-25T09:28:10.704Z,35.30
2018-07-25T09:30:38.815Z,35.40
2018-07-25T09:33:06.939Z,35.20
2018-07-25T09:35:35.072Z,35.10
2018-07-25T09:38:03.251Z,35.30
2018-07-25T09:40:31.449Z,35.50
2018-07-25T09:42:59.603Z,35.50
2018-07-25T09:45:27.758Z,35.60
2018-07-25T09:47:55.824Z,35.80
2018-07-25T09:50:23.959Z,35.70
2018-07-25T09:52:52.120Z,35.80
2018-07-25T09:55:20.176Z,35.80
2018-07-25T09:57:48.289Z,35.70
2018-07-25T10:00:22.094Z,35.60
2018-07-25T10:02:50.227Z,35.70
2018-07-25T10:05:18.310Z,35.90
2018-07-25T10:07:46.515Z,36.10
2018-07-25T10:10:14.518Z,36.20
2018-07-25T10:12:42.652Z,36.30
2018-07-25T10:15:10.648Z,36.50
2018-07-25T10:17:38.720Z,36.60
2018-07-25T10:20:06.885Z,36.60
2018-07-25T10:22:35.015Z,36.60
2018-07-25T10:25:03.126Z,36.60
2018-07-25T10:27:31.328Z,36.60
2018-07-25T10:29:59.376Z,36.60
2018-07-25T10:32:27.479Z,36.50
2018-07-25T10:34:55.591Z,36.30
2018-07-25T10:37:23.777Z,36.10
2018-07-25T10:39:51.860Z,36.20
2018-07-25T10:42:19.963Z,36.10
2018-07-25T10:44:48.069Z,36.40
2018-07-25T10:47:16.205Z,36.50
2018-07-25T10:49:44.324Z,36.40
2018-07-25T10:52:12.426Z,36.50
2018-07-25T10:54:40.528Z,36.50
2018-07-25T10:57:08.641Z,36.60
2018-07-25T10:59:36.746Z,36.30
2018-07-25T11:02:04.934Z,36.40
2018-07-25T11:04:33.088Z,36.50
2018-07-25T11:07:01.341Z,36.60
2018-07-25T11:09:29.407Z,36.80
2018-07-25T11:11:57.495Z,36.90
2018-07-25T11:16:53.553Z,37.00
2018-07-25T11:19:21.719Z,36.90
2018-07-25T11:21:49.816Z,36.90
2018-07-25T11:24:17.920Z,36.90
2018-07-25T11:26:46.035Z,36.80
2018-07-25T11:29:14.257Z,36.60
2018-07-25T11:31:42.375Z,36.30
2018-07-25T11:34:10.477Z,36.10
2018-07-25T11:36:38.604Z,35.90
2018-07-25T11:39:08.925Z,35.90
2018-07-25T11:41:37.063Z,35.90
2018-07-25T11:44:05.176Z,35.90
2018-07-25T11:46:33.283Z,36.00
2018-07-25T11:49:01.388Z,36.20
2018-07-25T11:51:29.499Z,36.40
2018-07-25T11:53:57.612Z,36.60
2018-07-25T11:56:25.705Z,36.70
2018-07-25T11:58:53.813Z,36.70
2018-07-25T12:01:21.935Z,36.80
2018-07-25T12:03:50.024Z,37.10
2018-07-25T12:06:18.131Z,36.90
2018-07-25T12:08:46.240Z,36.90
2018-07-25T12:11:14.385Z,36.90
2018-07-25T12:13:42.495Z,37.00
2018-07-25T12:16:10.608Z,37.10
2018-07-25T12:18:38.728Z,37.20
2018-07-25T12:21:07.208Z,37.20
2018-07-25T12:23:35.304Z,37.20
2018-07-25T12:26:03.502Z,37.30
2018-07-25T12:28:31.633Z,37.30
2018-07-25T12:33:27.692Z,37.10
2018-07-25T12:35:55.854Z,37.20
2018-07-25T12:38:23.981Z,37.20
2018-07-25T12:40:52.285Z,37.40
2018-07-25T12:43:20.395Z,37.50
2018-07-25T12:45:48.513Z,37.50
2018-07-25T12:48:16.749Z,37.40
2018-07-25T12:50:44.959Z,37.30
2018-07-25T12:53:13.084Z,37.10
2018-07-25T12:55:41.202Z,36.90
2018-07-25T12:58:09.324Z,36.70
2018-07-25T13:00:37.448Z,36.70
2018-07-25T13:03:06.647Z,36.80
2018-07-25T13:05:34.740Z,37.00
2018-07-25T13:08:02.858Z,37.10
2018-07-25T13:10:30.988Z,37.10
2018-07-25T13:12:59.088Z,36.80
2018-07-25T13:15:27.199Z,36.80
2018-07-25T13:17:55.317Z,36.70
2018-07-25T13:20:23.464Z,36.70
2018-07-25T13:22:51.588Z,36.90
2018-07-25T13:25:19.952Z,37.10
2018-07-25T13:27:48.073Z,37.30
2018-07-25T13:30:16.186Z,37.50
2018-07-25T13:32:44.315Z,37.50
2018-07-25T13:35:12.436Z,37.70
2018-07-25T13:37:40.579Z,37.70
2018-07-25T13:40:08.676Z,37.80
2018-07-25T13:42:36.781Z,37.80
2018-07-25T13:45:05.166Z,37.90
2018-07-25T13:47:33.292Z,38.00
2018-07-25T13:50:01.392Z,37.80
2018-07-25T13:52:29.523Z,37.80
2018-07-25T13:54:57.649Z,37.70
2018-07-25T13:57:25.788Z,37.50
2018-07-25T13:59:53.971Z,37.50
2018-07-25T14:02:22.127Z,37.70
2018-07-25T14:04:50.234Z,37.80
2018-07-25T14:07:18.366Z,37.90
2018-07-25T14:09:46.495Z,38.10
2018-07-25T14:12:14.718Z,37.90
2018-07-25T14:14:42.736Z,37.90
2018-07-25T14:17:10.903Z,37.80
2018-07-25T14:19:39.011Z,37.70
2018-07-25T14:22:07.182Z,37.60
2018-07-25T14:24:35.346Z,37.70
2018-07-25T14:27:03.516Z,37.70
2018-07-25T14:29:31.727Z,37.80
2018-07-25T14:31:59.761Z,37.80
2018-07-25T14:34:27.888Z,37.80
2018-07-25T14:36:56.078Z,37.90
2018-07-25T14:39:24.196Z,38.10
2018-07-25T14:41:52.296Z,37.80
2018-07-25T14:44:20.497Z,37.80
2018-07-25T14:46:48.686Z,37.90
2018-07-25T14:49:16.782Z,37.90
2018-07-25T14:51:44.928Z,37.90
2018-07-25T14:54:13.067Z,37.90
2018-07-25T14:56:41.216Z,38.00
2018-07-25T14:59:09.325Z,37.80
2018-07-25T15:01:37.425Z,37.80
2018-07-25T15:04:05.719Z,38.00
2018-07-25T15:06:33.847Z,38.00
2018-07-25T15:09:01.957Z,37.90
2018-07-25T15:11:30.066Z,37.70
2018-07-25T15:13:58.163Z,37.70
2018-07-25T15:16:26.389Z,37.70
2018-07-25T15:18:54.504Z,37.60
2018-07-25T15:21:22.624Z,37.60
2018-07-25T15:23:56.252Z,37.60
2018-07-25T15:26:24.417Z,37.50
2018-07-25T15:28:52.519Z,37.50
2018-07-25T15:31:20.624Z,37.60
2018-07-25T15:33:48.886Z,37.80
2018-07-25T15:36:49.271Z,37.80
2018-07-25T15:39:25.198Z,37.80
2018-07-25T15:41:54.243Z,37.70
2018-07-25T15:44:23.210Z,37.60
2018-07-25T15:46:51.398Z,37.70
2018-07-25T15:49:19.606Z,37.70
2018-07-25T15:51:47.735Z,37.70
2018-07-25T15:54:15.868Z,37.70
2018-07-25T15:56:44.020Z,37.70
2018-07-25T15:59:12.217Z,37.70
2018-07-25T16:01:40.415Z,37.50
2018-07-25T16:04:08.608Z,37.50
2018-07-25T16:06:36.720Z,37.60
2018-07-25T16:09:07.664Z,37.70
2018-07-25T16:11:35.777Z,37.60
2018-07-25T16:14:03.982Z,37.70
2018-07-25T16:16:32.137Z,37.60
2018-07-25T16:19:00.258Z,37.60
2018-07-25T16:21:28.386Z,37.40
2018-07-25T16:23:57.434Z,37.20
2018-07-25T16:26:25.647Z,37.00
2018-07-25T16:28:53.827Z,36.80
2018-07-25T16:31:21.958Z,36.60
2018-07-25T16:33:50.083Z,36.30
2018-07-25T16:36:18.215Z,36.10
2018-07-25T16:38:46.319Z,35.90
2018-07-25T16:41:14.576Z,35.80
2018-07-25T16:43:42.725Z,35.70
2018-07-25T16:46:10.839Z,35.60
2018-07-25T16:48:38.943Z,35.60
2018-07-25T16:51:07.077Z,35.40
2018-07-25T16:53:35.183Z,35.30
2018-07-25T16:56:03.318Z,35.10
2018-07-25T16:58:31.408Z,35.10
2018-07-25T17:00:59.518Z,34.90
2018-07-25T17:03:27.623Z,34.90
2018-07-25T17:05:55.738Z,34.80
2018-07-25T17:08:23.876Z,34.70
2018-07-25T17:10:52.016Z,34.60
2018-07-25T17:13:21.003Z,34.40
2018-07-25T17:15:49.123Z,34.30
2018-07-25T17:18:21.440Z,34.30
2018-07-25T17:20:50.868Z,34.30
2018-07-25T17:23:19.079Z,34.20
2018-07-25T17:25:47.256Z,34.00
2018-07-25T17:28:15.381Z,34.00
2018-07-25T17:30:43.964Z,33.90
2018-07-25T17:33:12.085Z,33.80
2018-07-25T17:35:40.232Z,33.70
2018-07-25T17:38:08.340Z,33.70
2018-07-25T17:40:36.481Z,33.60
2018-07-25T17:43:04.561Z,33.50
2018-07-25T17:45:32.675Z,33.50
2018-07-25T17:48:00.789Z,33.40
2018-07-25T17:50:28.891Z,33.30
2018-07-25T17:52:57.010Z,33.30
2018-07-25T17:55:25.130Z,33.30
2018-07-25T17:57:53.282Z,33.20
2018-07-25T18:00:21.368Z,33.10
2018-07-25T18:02:49.455Z,33.10
2018-07-25T18:05:17.591Z,33.00
2018-07-25T18:07:45.705Z,33.00
2018-07-25T18:10:13.818Z,32.90
2018-07-25T18:12:41.964Z,32.80
2018-07-25T18:15:10.297Z,32.70
2018-07-25T18:17:38.476Z,32.70
2018-07-25T18:20:06.849Z,32.60
2018-07-25T18:22:34.968Z,32.60
2018-07-25T18:25:03.118Z,32.50
2018-07-25T18:27:31.296Z,32.40
2018-07-25T18:29:59.424Z,32.40
2018-07-25T18:32:27.575Z,32.30
2018-07-25T18:34:55.691Z,32.20
2018-07-25T18:37:23.836Z,32.10
2018-07-25T18:39:52.009Z,31.90
2018-07-25T18:42:20.127Z,31.90
2018-07-25T18:47:16.233Z,31.60
2018-07-25T18:49:44.345Z,31.50
2018-07-25T18:52:12.494Z,31.40
2018-07-25T18:54:40.626Z,31.30
2018-07-25T18:57:08.759Z,31.30
2018-07-25T18:59:36.867Z,31.10
2018-07-25T19:02:05.082Z,31.00
2018-07-25T19:04:33.210Z,30.90
2018-07-25T19:07:01.351Z,30.80
2018-07-25T19:09:29.436Z,30.70
2018-07-25T19:11:57.581Z,30.60
2018-07-25T19:14:30.957Z,30.50
2018-07-25T19:16:59.106Z,30.40
2018-07-25T19:19:27.227Z,30.30
2018-07-25T19:21:55.394Z,30.20
2018-07-25T19:24:23.502Z,30.10
2018-07-25T19:26:51.641Z,30.00
2018-07-25T19:29:19.788Z,29.70
2018-07-25T19:31:47.915Z,29.50
2018-07-25T19:34:16.032Z,29.30
2018-07-25T19:36:44.151Z,29.00
2018-07-25T19:39:12.284Z,28.60
2018-07-25T19:41:40.407Z,28.40
2018-07-25T19:44:08.583Z,28.00
2018-07-25T19:46:36.708Z,27.80
2018-07-25T19:49:04.964Z,27.60
2018-07-25T19:51:33.074Z,27.50
2018-07-25T19:54:01.211Z,27.30
2018-07-25T19:56:29.334Z,27.20
2018-07-25T19:58:57.447Z,27.00
2018-07-25T20:01:25.641Z,27.00
2018-07-25T20:03:53.776Z,26.90
2018-07-25T20:06:21.941Z,26.70
2018-07-25T20:08:50.192Z,26.60
2018-07-25T20:11:18.325Z,26.50
2018-07-25T20:16:28.239Z,26.50
2018-07-25T20:18:56.350Z,26.40
2018-07-25T20:21:24.435Z,26.30
2018-07-25T20:23:52.612Z,26.40
2018-07-25T20:26:20.679Z,26.50
2018-07-25T20:28:48.768Z,26.40
2018-07-25T20:31:17.113Z,26.50
2018-07-25T20:33:45.227Z,26.50
2018-07-25T20:36:13.323Z,26.50
2018-07-25T20:38:41.422Z,26.50
2018-07-25T20:41:09.560Z,26.50
2018-07-25T20:43:37.674Z,26.40
2018-07-25T20:46:05.829Z,26.40
2018-07-25T20:48:33.960Z,26.40
2018-07-25T20:51:02.048Z,26.40
2018-07-25T20:53:30.159Z,26.30
2018-07-25T20:55:58.264Z,26.10
2018-07-25T20:58:26.464Z,26.00
2018-07-25T21:00:54.651Z,26.00
2018-07-25T21:03:22.757Z,25.90
2018-07-25T21:05:50.883Z,25.80
2018-07-25T21:08:19.032Z,25.70
2018-07-25T21:10:47.205Z,25.70
2018-07-25T21:13:15.309Z,25.70
2018-07-25T21:15:43.405Z,25.70
2018-07-25T21:18:11.516Z,25.70
2018-07-25T21:20:39.733Z,25.70
2018-07-25T21:23:07.873Z,25.60
2018-07-25T21:25:35.998Z,25.60
2018-07-25T21:28:04.154Z,25.50
2018-07-25T21:30:32.288Z,25.40
2018-07-25T21:33:00.463Z,25.20
2018-07-25T21:35:28.659Z,25.30
2018-07-25T21:37:56.779Z,25.30
2018-07-25T21:40:24.907Z,25.20
2018-07-25T21:42:53.165Z,25.20
2018-07-25T21:45:21.311Z,25.20
2018-07-25T21:47:49.431Z,25.30
2018-07-25T21:50:17.549Z,25.30
2018-07-25T21:52:45.655Z,25.30
2018-07-25T21:55:13.778Z,25.30
2018-07-25T21:57:41.948Z,25.40
2018-07-25T22:00:14.514Z,25.30
2018-07-25T22:02:43.608Z,25.30
2018-07-25T22:05:11.989Z,25.10
2018-07-25T22:07:40.115Z,25.00
2018-07-25T22:10:08.640Z,24.90
2018-07-25T22:12:36.856Z,24.90
2018-07-25T22:15:05.872Z,24.90
2018-07-25T22:17:34.008Z,24.90
2018-07-25T22:20:02.175Z,24.90
2018-07-25T22:22:30.292Z,24.80
2018-07-25T22:24:58.399Z,24.80
2018-07-25T22:27:26.515Z,24.70
2018-07-25T22:29:54.649Z,24.60
2018-07-25T22:32:22.741Z,24.50
2018-07-25T22:34:50.884Z,24.30
2018-07-25T22:37:19.005Z,24.10
2018-07-25T22:39:47.102Z,24.00
2018-07-25T22:42:15.196Z,23.80
2018-07-25T22:44:43.295Z,23.80
2018-07-25T22:47:11.397Z,23.80
2018-07-25T22:49:39.500Z,23.90
2018-07-25T22:52:07.600Z,23.90
2018-07-25T22:54:35.707Z,23.80
2018-07-25T22:57:03.797Z,23.80
2018-07-25T22:59:31.905Z,23.80
2018-07-25T23:02:00.015Z,23.80
2018-07-25T23:04:28.223Z,23.70
2018-07-25T23:06:56.333Z,23.70
2018-07-25T23:09:24.445Z,23.60
2018-07-25T23:11:52.537Z,23.50
2018-07-25T23:14:20.675Z,23.30
2018-07-25T23:16:48.785Z,23.10
2018-07-25T23:19:16.904Z,23.00
2018-07-25T23:21:44.999Z,23.00
2018-07-25T23:24:13.091Z,23.00
2018-07-25T23:26:41.175Z,23.00
2018-07-25T23:29:09.287Z,23.00
2018-07-25T23:31:37.394Z,23.00
2018-07-25T23:34:05.484Z,22.90
2018-07-25T23:36:33.596Z,22.80
2018-07-25T23:39:01.769Z,22.70
2018-07-25T23:41:29.875Z,22.70
2018-07-25T23:43:58.058Z,22.60
2018-07-25T23:46:26.152Z,22.40
2018-07-25T23:48:54.266Z,22.30
2018-07-25T23:51:22.434Z,22.30
2018-07-25T23:53:50.546Z,22.30
2018-07-25T23:56:18.647Z,22.40
2018-07-25T23:58:46.777Z,22.40
